aviador You're here:

SAZS Decoded Metar

SAN CARLOS DE BARILOCH in ARGENTINA
Report Time2017-09-24 06:00:00
UTC Time2017-09-24 06:56:50
Flight Rules vfr VFR
Wind320° at 14 kt
W.Decomp.*RWY 29: 13.0 kt HW 5.2 kt RCW
W.Rank320° ranks 1
Current wind is below 320° avg. (14.1)
Visibility9999 m
Phenomena:N/A
Clouds:Few 028 Hf
Scattered 040 Hf
Expected CloudBase > 1,200 ft AGL from Temp-Dew spread
CeilingNone
Temp07°C (ISA -3)
Dew Point04°C (81% RH)
AAT0.6°C
QNH1011 hPa
Density Alt2,641 ft
Elevation2,756 ft
Report Wrong Elevation
Raw Report
SAZS 240600Z 32014KT 9999 FEW028 SCT040 07/04 Q1011=

Extra information for SAZS:More info

Metar Taf Metar & Taf Last 4 Metars F.Rules Stats Wind Profile Meteogram Temp Stats Airport Information Weather charts Add Link Nearby VenuesMetar ALERT Operation Metar Decoded Social comments